Time;durP1;ratioP1;P1;durP2;ratioP2;P2;SDS_P1;SDS_P2;PMS_P1;PMS_P2;Temp;Humidity;BMP_temperature;BMP_pressure;BME280_temperature;BME280_humidity;BME280_pressure;Samples;Min_cycle;Max_cycle;Signal;HPM_P1;HPM_P2
2022/02/21 00:00:39;;;;;;;;;;;;;;;17.18;56.07;99548.09;4981131;28;19926;-78
2022/02/21 00:03:06;;;;;;;;;;;;;;;17.19;56.13;99541.13;4993541;28;20403;-78
2022/02/21 00:05:32;;;;;;;;;;;;;;;17.18;56.04;99553.28;4996694;28;19944;-78
2022/02/21 00:07:57;;;;;;;;;;;;;;;17.17;56.03;99572.34;5014587;28;20279;-78
2022/02/21 00:10:23;;;;;;;;;;;;;;;17.17;55.84;99569.75;4981183;28;20020;-78
2022/02/21 00:12:48;;;;;;;;;;;;;;;17.17;55.99;99572.34;5014659;28;19967;-80
2022/02/21 00:15:17;;;;;;;;;;;;;;;17.17;55.67;99595.75;4980341;28;19974;-78
2022/02/21 00:17:43;;;;;;;;;;;;;;;17.18;55.86;99581.00;4996614;28;19917;-78
2022/02/21 00:20:08;;;;;;;;;;;;;;;17.17;55.74;99600.13;4996507;28;19972;-79
2022/02/21 00:22:33;;;;;;;;;;;;;;;17.16;55.61;99591.47;4980330;28;19922;-78
2022/02/21 00:24:59;;;;;;;;;;;;;;;17.17;55.69;99589.72;4996249;28;19920;-78
2022/02/21 00:27:24;;;;;;;;;;;;;;;17.15;55.78;99614.91;4996959;28;19914;-78
2022/02/21 00:29:49;;;;;;;;;;;;;;;17.15;55.84;99620.94;4979915;28;19928;-80
2022/02/21 00:32:15;;;;;;;;;;;;;;;17.16;55.53;99622.66;4996155;28;19926;-78
2022/02/21 00:34:40;;;;;;;;;;;;;;;17.15;55.52;99639.13;4995970;28;20323;-77
2022/02/21 00:37:06;;;;;;;;;;;;;;;17.16;55.64;99635.66;4978035;28;20315;-80
2022/02/21 00:39:31;;;;;;;;;;;;;;;17.15;55.69;99641.72;4996491;28;19921;-79
2022/02/21 00:41:56;;;;;;;;;;;;;;;17.15;55.66;99638.28;4998805;28;20008;-78
2022/02/21 00:44:21;;;;;;;;;;;;;;;17.13;55.37;99638.31;4983027;28;19921;-78
2022/02/21 00:46:47;;;;;;;;;;;;;;;17.15;55.40;99648.69;5001271;28;20380;-77
2022/02/21 00:49:12;;;;;;;;;;;;;;;17.14;55.50;99647.00;5006939;28;19953;-79
2022/02/21 00:51:37;;;;;;;;;;;;;;;17.14;55.41;99660.00;5002838;28;20310;-79
2022/02/21 00:54:03;;;;;;;;;;;;;;;17.15;55.48;99666.88;5016135;28;19926;-78
2022/02/21 00:56:28;;;;;;;;;;;;;;;17.13;55.29;99666.91;5020432;28;19917;-78
2022/02/21 00:58:53;;;;;;;;;;;;;;;17.13;55.57;99679.91;4984364;28;19983;-77
2022/02/21 01:01:18;;;;;;;;;;;;;;;17.14;55.24;99684.25;5000721;28;20057;-79
2022/02/21 01:03:44;;;;;;;;;;;;;;;17.14;55.27;99693.78;4983385;28;19968;-77
2022/02/21 01:06:09;;;;;;;;;;;;;;;17.12;55.60;99704.22;4984662;28;19921;-77
2022/02/21 01:08:34;;;;;;;;;;;;;;;17.13;55.39;99689.47;4986561;28;19925;-77
2022/02/21 01:11:00;;;;;;;;;;;;;;;17.12;55.41;99696.41;4967887;28;19929;-77
2022/02/21 01:13:25;;;;;;;;;;;;;;;17.12;55.26;99700.78;4983260;28;19921;-78
2022/02/21 01:15:53;;;;;;;;;;;;;;;17.13;55.28;99692.06;4967016;28;19985;-77
2022/02/21 01:18:18;;;;;;;;;;;;;;;17.11;55.15;99707.69;4983645;28;19918;-78
2022/02/21 01:20:44;;;;;;;;;;;;;;;17.12;55.18;99709.41;4998830;28;19921;-78
2022/02/21 01:23:09;;;;;;;;;;;;;;;17.11;55.01;99701.66;5020643;28;20375;-78
2022/02/21 01:25:34;;;;;;;;;;;;;;;17.11;54.70;99692.09;5002759;28;19979;-78
2022/02/21 01:27:59;;;;;;;;;;;;;;;17.11;55.09;99704.25;4986479;28;19918;-78
2022/02/21 01:30:25;;;;;;;;;;;;;;;17.12;55.11;99713.78;5002548;28;19917;-77
2022/02/21 01:32:50;;;;;;;;;;;;;;;17.11;54.75;99732.84;4998717;28;19984;-79
2022/02/21 01:35:15;;;;;;;;;;;;;;;17.11;54.93;99738.03;5000320;28;20446;-77
2022/02/21 01:37:41;;;;;;;;;;;;;;;17.10;55.27;99732.00;4977730;28;19922;-80
2022/02/21 01:40:09;;;;;;;;;;;;;;;17.11;55.05;99732.84;4994684;28;19922;-78
2022/02/21 01:42:35;;;;;;;;;;;;;;;17.10;54.92;99726.78;4983098;28;19913;-78
2022/02/21 01:45:00;;;;;;;;;;;;;;;17.11;55.00;99735.44;4983036;28;19918;-77
2022/02/21 01:47:25;;;;;;;;;;;;;;;17.10;55.01;99744.16;4982941;28;19937;-78
2022/02/21 01:49:51;;;;;;;;;;;;;;;17.11;54.85;99748.44;4985200;28;19949;-78
2022/02/21 01:52:18;;;;;;;;;;;;;;;17.10;54.77;99754.53;4997280;28;19925;-77
2022/02/21 01:54:43;;;;;;;;;;;;;;;17.09;54.66;99738.06;4998616;28;19987;-79
2022/02/21 01:57:09;;;;;;;;;;;;;;;17.10;54.71;99745.00;4999343;28;19921;-79
2022/02/21 01:59:35;;;;;;;;;;;;;;;17.10;54.87;99751.94;4998663;28;20012;-80
2022/02/21 02:02:00;;;;;;;;;;;;;;;17.10;54.85;99744.16;4979964;28;20328;-78
2022/02/21 02:04:26;;;;;;;;;;;;;;;17.09;54.84;99745.03;4974191;28;19930;-78
2022/02/21 02:06:51;;;;;;;;;;;;;;;17.09;54.59;99750.22;4995789;28;20355;-79
2022/02/21 02:09:16;;;;;;;;;;;;;;;17.09;54.97;99752.81;4996967;28;20375;-79
2022/02/21 02:11:42;;;;;;;;;;;;;;;17.09;54.70;99750.22;4995668;28;20000;-77
2022/02/21 02:14:07;;;;;;;;;;;;;;;17.09;53.88;99747.63;4995745;28;19921;-77
2022/02/21 02:16:33;;;;;;;;;;;;;;;17.10;54.61;99754.53;4995808;28;19924;-79
2022/02/21 02:18:58;;;;;;;;;;;;;;;17.08;53.53;99744.16;4979807;28;19918;-79
2022/02/21 02:21:26;;;;;;;;;;;;;;;17.07;54.11;99745.03;4990366;28;19929;-79
2022/02/21 02:23:52;;;;;;;;;;;;;;;17.08;54.56;99756.31;4995646;28;19914;-78
2022/02/21 02:26:18;;;;;;;;;;;;;;;17.08;53.38;99764.97;4985281;28;19918;-79
2022/02/21 02:28:47;;;;;;;;;;;;;;;17.08;54.26;99764.13;4976794;28;19925;-78
2022/02/21 02:31:12;;;;;;;;;;;;;;;17.08;53.48;99764.13;4996698;28;19917;-80
2022/02/21 02:33:37;;;;;;;;;;;;;;;17.06;54.19;99765.00;4995297;28;19924;-78
2022/02/21 02:36:06;;;;;;;;;;;;;;;17.06;54.27;99765.00;4995188;28;20373;-77
2022/02/21 02:38:31;;;;;;;;;;;;;;;17.05;54.05;99763.31;4975925;28;19927;-77
2022/02/21 02:40:56;;;;;;;;;;;;;;;17.05;54.61;99763.31;4995264;28;19929;-78
2022/02/21 02:43:22;;;;;;;;;;;;;;;17.05;54.32;99758.09;4995519;28;19957;-77
2022/02/21 02:45:47;;;;;;;;;;;;;;;17.05;54.45;99758.09;4975224;28;19929;-78
2022/02/21 02:48:13;;;;;;;;;;;;;;;17.05;54.13;99765.91;4991929;28;19914;-78
2022/02/21 02:50:38;;;;;;;;;;;;;;;17.05;53.63;99757.25;4994709;28;19933;-78
2022/02/21 02:53:03;;;;;;;;;;;;;;;17.05;53.79;99762.47;4979029;28;19964;-78
2022/02/21 02:55:29;;;;;;;;;;;;;;;17.05;53.11;99758.09;4994737;28;19918;-78
2022/02/21 02:57:54;;;;;;;;;;;;;;;17.05;54.05;99760.72;4995065;28;19914;-78
2022/02/21 03:00:19;;;;;;;;;;;;;;;17.04;53.83;99766.78;4975411;28;19978;-79
2022/02/21 03:02:45;;;;;;;;;;;;;;;17.05;54.04;99754.66;4995307;28;19922;-78
2022/02/21 03:05:10;;;;;;;;;;;;;;;17.04;53.78;99753.78;4972150;28;20028;-78
2022/02/21 03:07:35;;;;;;;;;;;;;;;17.05;53.74;99754.66;4963346;28;19925;-78
2022/02/21 03:10:00;;;;;;;;;;;;;;;17.04;53.80;99752.94;4986645;28;19917;-79
2022/02/21 03:12:26;;;;;;;;;;;;;;;17.04;53.14;99756.38;5015246;28;19929;-77
2022/02/21 03:14:51;;;;;;;;;;;;;;;17.03;53.84;99759.88;4996341;28;19927;-78
2022/02/21 03:17:17;;;;;;;;;;;;;;;17.03;53.61;99743.44;4974428;28;19921;-78
2022/02/21 03:19:42;;;;;;;;;;;;;;;17.03;53.63;99770.28;4981170;28;21983;-79
2022/02/21 03:22:07;;;;;;;;;;;;;;;17.02;53.86;99765.97;5004210;28;19922;-79
2022/02/21 03:24:32;;;;;;;;;;;;;;;17.03;53.29;99757.28;4981796;28;20450;-80
2022/02/21 03:26:58;;;;;;;;;;;;;;;17.03;52.73;99759.88;4966739;28;20384;-81
2022/02/21 03:29:23;;;;;;;;;;;;;;;17.04;53.63;99765.94;4978193;28;20396;-80
2022/02/21 03:31:48;;;;;;;;;;;;;;;17.04;52.72;99765.94;4984570;28;20019;-78
2022/02/21 03:34:13;;;;;;;;;;;;;;;17.03;52.79;99761.63;4991771;28;20032;-79
2022/02/21 03:36:39;;;;;;;;;;;;;;;17.02;52.51;99763.34;5000190;28;19918;-79
2022/02/21 03:39:04;;;;;;;;;;;;;;;17.03;53.32;99756.44;4996898;28;20048;-79
2022/02/21 03:41:30;;;;;;;;;;;;;;;17.02;52.37;99763.34;5014410;28;19930;-79
2022/02/21 03:43:56;;;;;;;;;;;;;;;17.02;52.81;99778.94;4997600;28;19922;-78
2022/02/21 03:46:24;;;;;;;;;;;;;;;17.02;52.78;99776.34;4997288;28;19920;-77
2022/02/21 03:48:49;;;;;;;;;;;;;;;17.02;52.95;99765.13;4981043;28;19967;-78
2022/02/21 03:51:15;;;;;;;;;;;;;;;17.02;52.23;99772.91;4973626;28;19921;-78
2022/02/21 03:53:40;;;;;;;;;;;;;;;17.02;52.34;99780.72;4961662;28;19918;-77
2022/02/21 03:56:05;;;;;;;;;;;;;;;17.01;52.34;99777.25;4977939;28;19918;-78
2022/02/21 03:58:30;;;;;;;;;;;;;;;17.01;52.33;99766.88;4974310;28;19987;-77
2022/02/21 04:00:56;;;;;;;;;;;;;;;17.01;52.77;99763.41;4980750;28;20024;-78
2022/02/21 04:03:21;;;;;;;;;;;;;;;17.01;52.55;99774.66;4980889;28;19926;-78
2022/02/21 04:05:46;;;;;;;;;;;;;;;17.00;52.54;99770.34;4995839;28;19952;-78
2022/02/21 04:08:11;;;;;;;;;;;;;;;17.00;52.59;99772.94;4996547;28;20344;-77
2022/02/21 04:10:37;;;;;;;;;;;;;;;17.00;52.08;99749.53;4980747;28;19917;-77
2022/02/21 04:13:02;;;;;;;;;;;;;;;17.00;52.31;99767.75;4985207;28;19961;-79
2022/02/21 04:15:27;;;;;;;;;;;;;;;16.99;53.00;99763.44;4997093;28;20391;-78
2022/02/21 04:17:52;;;;;;;;;;;;;;;17.00;52.08;99785.94;5013855;28;20395;-77
2022/02/21 04:20:19;;;;;;;;;;;;;;;17.00;52.52;99777.28;4995859;28;20051;-77
2022/02/21 04:22:44;;;;;;;;;;;;;;;16.99;52.35;99776.44;4996257;28;19917;-77
2022/02/21 04:25:10;;;;;;;;;;;;;;;16.99;52.28;99779.03;4996686;28;19920;-78
2022/02/21 04:27:42;;;;;;;;;;;;;;;16.98;52.05;99785.13;4970803;28;20331;-77
2022/02/21 04:30:07;;;;;;;;;;;;;;;16.99;51.77;99770.41;4996714;28;19985;-77
2022/02/21 04:32:35;;;;;;;;;;;;;;;16.98;52.04;99769.53;4996677;28;19925;-76
2022/02/21 04:35:00;;;;;;;;;;;;;;;16.98;51.97;99771.28;4978513;28;20323;-77
2022/02/21 04:37:25;;;;;;;;;;;;;;;16.98;52.10;99772.13;4980143;28;19936;-78
2022/02/21 04:39:50;;;;;;;;;;;;;;;16.98;51.77;99766.91;5014062;28;19921;-77
2022/02/21 04:42:16;;;;;;;;;;;;;;;16.98;51.81;99755.69;4993786;28;19930;-77
2022/02/21 04:44:41;;;;;;;;;;;;;;;16.98;51.93;99758.28;4977437;28;19965;-78
2022/02/21 04:47:06;;;;;;;;;;;;;;;16.97;51.88;99757.44;4991879;28;19971;-77
2022/02/21 04:49:32;;;;;;;;;;;;;;;16.98;51.62;99760.88;4994469;28;19921;-79
2022/02/21 04:52:00;;;;;;;;;;;;;;;16.97;51.89;99752.22;5009656;28;20268;-79
2022/02/21 04:54:25;;;;;;;;;;;;;;;16.96;51.74;99745.34;4980148;28;19957;-79
2022/02/21 04:56:50;;;;;;;;;;;;;;;16.98;51.66;99758.28;4997088;28;19975;-78
2022/02/21 04:59:15;;;;;;;;;;;;;;;16.97;51.72;99739.25;4985297;28;19926;-78
2022/02/21 05:01:41;;;;;;;;;;;;;;;16.96;51.76;99734.06;4973927;28;19922;-77
2022/02/21 05:04:06;;;;;;;;;;;;;;;16.96;51.83;99747.06;4963749;28;19934;-77
2022/02/21 05:06:31;;;;;;;;;;;;;;;16.96;52.61;99747.94;4977002;28;19928;-77
2022/02/21 05:08:58;;;;;;;;;;;;;;;16.95;51.81;99734.97;4959885;28;19922;-77
2022/02/21 05:11:23;;;;;;;;;;;;;;;16.96;51.63;99714.16;4977028;28;19945;-77
2022/02/21 05:13:48;;;;;;;;;;;;;;;16.95;51.54;99720.22;4970279;28;19918;-76
2022/02/21 05:16:14;;;;;;;;;;;;;;;16.95;51.48;99719.38;4965141;28;19969;-77
2022/02/21 05:18:40;;;;;;;;;;;;;;;16.94;51.34;99718.53;4957751;28;20017;-77
2022/02/21 05:21:05;;;;;;;;;;;;;;;16.94;51.51;99710.75;4970835;28;19968;-77
2022/02/21 05:23:30;;;;;;;;;;;;;;;16.93;51.74;99715.97;4994017;28;20372;-75
2022/02/21 05:25:55;;;;;;;;;;;;;;;16.93;51.46;99722.00;4946648;28;19925;-76
2022/02/21 05:28:21;;;;;;;;;;;;;;;16.93;51.41;99711.63;4971453;28;19922;-79
2022/02/21 05:30:46;;;;;;;;;;;;;;;16.93;51.50;99702.97;4982340;28;20291;-78
2022/02/21 05:33:13;;;;;;;;;;;;;;;16.94;51.13;99705.53;4974523;28;19922;-79
2022/02/21 05:35:38;;;;;;;;;;;;;;;16.93;51.40;99710.75;4959987;28;19937;-76
2022/02/21 05:38:03;;;;;;;;;;;;;;;16.94;51.20;99713.34;4978237;28;19918;-75
2022/02/21 05:40:29;;;;;;;;;;;;;;;16.93;51.30;99716.81;4978927;28;19926;-76
2022/02/21 05:42:54;;;;;;;;;;;;;;;16.93;51.41;99711.63;4972945;28;19918;-76
2022/02/21 05:45:19;;;;;;;;;;;;;;;16.93;51.08;99702.97;4971532;28;20348;-75
2022/02/21 05:47:44;;;;;;;;;;;;;;;16.92;51.05;99717.72;4962976;28;19925;-75
2022/02/21 05:50:10;;;;;;;;;;;;;;;16.94;50.85;99708.13;4973041;28;20301;-76
2022/02/21 05:52:35;;;;;;;;;;;;;;;16.94;51.20;99696.88;4978224;28;19922;-75
2022/02/21 05:55:00;;;;;;;;;;;;;;;16.92;50.89;99691.72;4965671;28;20000;-77
2022/02/21 05:57:27;;;;;;;;;;;;;;;16.92;50.64;99691.72;4987484;28;19922;-74
2022/02/21 05:59:52;;;;;;;;;;;;;;;16.92;50.77;99738.50;4960527;28;19922;-77
2022/02/21 06:02:17;;;;;;;;;;;;;;;16.91;50.85;99703.00;4961115;28;19928;-78
2022/02/21 06:04:43;;;;;;;;;;;;;;;16.92;52.36;99693.44;4978078;28;19926;-77
2022/02/21 06:07:08;;;;;;;;;;;;;;;16.90;51.94;99690.03;5011249;28;19918;-79
2022/02/21 06:09:33;;;;;;;;;;;;;;;16.91;52.03;99686.56;4998166;28;19913;-77
2022/02/21 06:11:58;;;;;;;;;;;;;;;16.91;52.12;99691.75;4993800;28;19928;-77
2022/02/21 06:14:24;;;;;;;;;;;;;;;16.89;52.50;99686.59;4988302;28;19973;-82
2022/02/21 06:16:49;;;;;;;;;;;;;;;16.90;52.44;99714.31;4990584;28;19922;-79
2022/02/21 06:19:14;;;;;;;;;;;;;;;16.90;52.56;99685.72;5012030;28;19991;-79
2022/02/21 06:21:40;;;;;;;;;;;;;;;16.91;52.60;99681.38;4994821;28;19928;-77
2022/02/21 06:24:05;;;;;;;;;;;;;;;16.91;52.35;99695.22;4977686;28;20302;-78
2022/02/21 06:26:33;;;;;;;;;;;;;;;16.91;52.52;99686.56;4974071;28;20289;-76
2022/02/21 06:28:58;;;;;;;;;;;;;;;16.91;52.52;99677.00;4996828;28;19918;-78
2022/02/21 06:31:23;;;;;;;;;;;;;;;16.91;52.32;99666.63;4979158;28;19913;-76
2022/02/21 06:33:49;;;;;;;;;;;;;;;16.91;52.81;99677.00;4996813;28;19914;-75
2022/02/21 06:36:14;;;;;;;;;;;;;;;16.93;52.78;99661.41;4979153;28;19914;-79
2022/02/21 06:38:41;;;;;;;;;;;;;;;16.93;52.74;99671.78;4996584;28;20008;-80
2022/02/21 06:41:06;;;;;;;;;;;;;;;16.94;52.81;99666.56;4978961;28;20338;-77
2022/02/21 06:43:31;;;;;;;;;;;;;;;16.95;52.60;99662.22;4963047;28;19917;-78
2022/02/21 06:45:57;;;;;;;;;;;;;;;16.95;52.40;99655.25;4979118;28;19922;-80
2022/02/21 06:48:23;;;;;;;;;;;;;;;16.95;52.51;99657.84;4979154;28;19918;-78
2022/02/21 06:50:48;;;;;;;;;;;;;;;16.96;52.57;99656.97;4996369;28;19940;-79
2022/02/21 06:53:14;;;;;;;;;;;;;;;16.97;52.49;99650.03;4978925;28;19918;-79
2022/02/21 06:55:39;;;;;;;;;;;;;;;16.97;52.30;99652.63;4979090;28;19925;-79
2022/02/21 06:58:04;;;;;;;;;;;;;;;16.97;52.29;99650.88;4978746;28;20419;-79
2022/02/21 07:00:29;;;;;;;;;;;;;;;16.97;52.41;99643.09;4996268;28;19922;-79
2022/02/21 07:02:55;;;;;;;;;;;;;;;17.01;52.46;99643.88;4978606;28;19918;-78
2022/02/21 07:05:20;;;;;;;;;;;;;;;17.04;52.14;99641.19;4978578;28;19960;-78
2022/02/21 07:07:45;;;;;;;;;;;;;;;17.07;51.91;99635.88;4978590;28;19925;-78
2022/02/21 07:10:11;;;;;;;;;;;;;;;17.08;51.82;99640.19;4994859;28;19914;-79
2022/02/21 07:12:36;;;;;;;;;;;;;;;17.09;51.94;99638.44;4978575;28;20007;-78
2022/02/21 07:15:03;;;;;;;;;;;;;;;17.10;52.07;99634.97;4978712;28;20280;-79
2022/02/21 07:17:28;;;;;;;;;;;;;;;17.08;51.72;99635.00;4978489;28;19919;-78
2022/02/21 07:19:55;;;;;;;;;;;;;;;17.06;52.05;99622.03;4995690;28;20407;-82
2022/02/21 07:22:20;;;;;;;;;;;;;;;17.05;52.06;99617.75;4994453;28;20364;-78
2022/02/21 07:24:46;;;;;;;;;;;;;;;17.04;51.98;99612.59;4978253;28;19922;-79
2022/02/21 07:27:11;;;;;;;;;;;;;;;17.01;52.11;99610.94;4978306;28;20370;-79
2022/02/21 07:29:36;;;;;;;;;;;;;;;17.00;52.23;99627.41;4978364;28;20052;-81
2022/02/21 07:32:02;;;;;;;;;;;;;;;17.01;52.18;99603.13;4978249;28;19914;-78
2022/02/21 07:34:27;;;;;;;;;;;;;;;17.00;52.42;99603.16;4978074;28;19924;-80
2022/02/21 07:36:53;;;;;;;;;;;;;;;17.00;52.50;99606.59;4978227;28;20308;-81
2022/02/21 07:39:18;;;;;;;;;;;;;;;16.99;52.21;99602.31;4978222;28;20284;-79
2022/02/21 07:41:44;;;;;;;;;;;;;;;16.99;52.35;99623.09;4978254;28;19925;-78
2022/02/21 07:44:09;;;;;;;;;;;;;;;16.99;52.42;99607.50;4977825;28;19918;-78
2022/02/21 07:46:34;;;;;;;;;;;;;;;16.98;52.61;99594.56;4977916;28;19917;-77
2022/02/21 07:49:00;;;;;;;;;;;;;;;16.98;52.40;99585.00;4993936;28;20391;-79
2022/02/21 07:51:25;;;;;;;;;;;;;;;16.99;52.29;99575.47;4977449;28;20344;-77
2022/02/21 07:53:51;;;;;;;;;;;;;;;16.98;52.65;99565.97;4995393;28;20005;-77
2022/02/21 07:56:16;;;;;;;;;;;;;;;16.99;52.45;99550.34;4994102;28;19917;-77
2022/02/21 07:58:41;;;;;;;;;;;;;;;16.98;52.12;99552.97;4977650;28;20276;-77
2022/02/21 08:01:07;;;;;;;;;;;;;;;16.99;52.42;99549.50;4977528;28;20360;-79
2022/02/21 08:03:36;;;;;;;;;;;;;;;16.99;52.29;99536.50;4977371;28;19929;-80
2022/02/21 08:06:02;;;;;;;;;;;;;;;16.99;52.25;99541.69;4977808;28;19918;-79
2022/02/21 08:08:27;;;;;;;;;;;;;;;16.99;52.15;99532.16;4977423;28;19921;-79
2022/02/21 08:10:52;;;;;;;;;;;;;;;16.98;52.19;99520.03;4977706;28;19918;-79
2022/02/21 08:13:17;;;;;;;;;;;;;;;16.98;52.28;99512.22;4977494;28;19921;-76
2022/02/21 08:15:43;;;;;;;;;;;;;;;16.99;52.05;99508.75;4977435;28;19917;-76
2022/02/21 08:18:08;;;;;;;;;;;;;;;16.99;51.99;99511.34;4994855;28;19918;-77
2022/02/21 08:20:33;;;;;;;;;;;;;;;17.01;52.15;99506.13;4977376;28;19957;-77
2022/02/21 08:22:58;;;;;;;;;;;;;;;17.00;52.33;99491.41;4977273;28;20327;-76
2022/02/21 08:25:24;;;;;;;;;;;;;;;17.00;52.24;99489.66;4977216;28;20295;-79
2022/02/21 08:27:50;;;;;;;;;;;;;;;17.01;52.25;99477.53;4994756;28;19921;-77
2022/02/21 08:30:17;;;;;;;;;;;;;;;17.01;52.26;99470.59;4993062;28;19913;-79
2022/02/21 08:32:42;;;;;;;;;;;;;;;17.01;52.09;99491.38;4993391;28;19921;-77
2022/02/21 08:35:08;;;;;;;;;;;;;;;17.02;52.17;99479.22;4993386;28;19914;-76
2022/02/21 08:37:34;;;;;;;;;;;;;;;17.02;51.94;99476.63;4977080;28;19918;-76
2022/02/21 08:39:59;;;;;;;;;;;;;;;17.02;52.24;99471.44;4977161;28;20392;-78
2022/02/21 08:42:25;;;;;;;;;;;;;;;17.01;52.27;99452.38;4977057;28;19944;-75
2022/02/21 08:44:50;;;;;;;;;;;;;;;17.02;52.08;99453.22;4977322;28;19918;-79
2022/02/21 08:47:16;;;;;;;;;;;;;;;17.01;52.38;99439.41;4977431;28;19917;-76
2022/02/21 08:49:42;;;;;;;;;;;;;;;17.01;52.13;99442.00;4993286;28;20390;-76
2022/02/21 08:52:08;;;;;;;;;;;;;;;17.02;52.17;99435.03;4977165;28;19914;-76
2022/02/21 08:54:35;;;;;;;;;;;;;;;17.02;52.14;99435.03;4977691;28;19968;-77
2022/02/21 08:57:01;;;;;;;;;;;;;;;17.02;52.19;99424.66;4977400;28;19997;-84
2022/02/21 08:59:26;;;;;;;;;;;;;;;17.02;52.11;99429.84;4977757;28;19968;-82
2022/02/21 09:01:52;;;;;;;;;;;;;;;17.01;51.95;99429.00;4978161;28;19925;-83
2022/02/21 09:04:17;;;;;;;;;;;;;;;17.01;52.01;99421.19;4971609;28;19933;-83
2022/02/21 09:06:42;;;;;;;;;;;;;;;17.02;52.07;99428.09;4962051;28;20017;-82
2022/02/21 09:09:07;;;;;;;;;;;;;;;17.08;51.74;99424.47;4962100;28;20366;-84
2022/02/21 09:11:33;;;;;;;;;;;;;;;17.10;51.87;99438.28;4962120;28;19918;-84
2022/02/21 09:13:58;;;;;;;;;;;;;;;17.14;51.97;99410.44;4945814;28;20369;-86
2022/02/21 09:16:23;;;;;;;;;;;;;;;17.13;51.84;99424.31;4961507;28;19919;-84
2022/02/21 09:18:49;;;;;;;;;;;;;;;17.13;51.97;99409.56;4961439;28;19926;-83
2022/02/21 09:21:14;;;;;;;;;;;;;;;17.13;52.06;99400.94;4978976;28;20035;-83
2022/02/21 09:23:39;;;;;;;;;;;;;;;17.12;51.79;99386.25;4978862;28;20386;-85
2022/02/21 09:26:05;;;;;;;;;;;;;;;17.12;51.91;99394.91;4961565;28;19918;-86
2022/02/21 09:28:30;;;;;;;;;;;;;;;17.13;52.16;99391.38;4945593;28;19922;-83
2022/02/21 09:30:55;;;;;;;;;;;;;;;17.13;52.06;99404.38;4961830;28;19914;-85
2022/02/21 09:33:24;;;;;;;;;;;;;;;17.12;52.01;99392.28;4979489;28;20013;-84
2022/02/21 09:35:49;;;;;;;;;;;;;;;17.12;51.86;99383.66;4961373;28;20341;-85
2022/02/21 09:38:15;;;;;;;;;;;;;;;17.11;52.00;99384.53;4961338;28;19922;-84
2022/02/21 09:40:41;;;;;;;;;;;;;;;17.12;51.99;99381.91;4977375;28;19918;-84
2022/02/21 09:43:06;;;;;;;;;;;;;;;17.13;51.90;99375.78;4961642;28;19921;-84
2022/02/21 09:45:32;;;;;;;;;;;;;;;17.14;51.78;99387.06;4961176;28;19918;-85
2022/02/21 09:47:57;;;;;;;;;;;;;;;17.13;51.77;99375.78;4945087;28;19964;-85
2022/02/21 09:50:25;;;;;;;;;;;;;;;17.13;52.01;99382.75;4961128;28;19914;-81
2022/02/21 09:52:50;;;;;;;;;;;;;;;17.14;51.68;99371.47;4961304;28;19914;-84
2022/02/21 09:55:15;;;;;;;;;;;;;;;17.14;51.75;99377.50;4945258;28;20368;-85
2022/02/21 09:57:41;;;;;;;;;;;;;;;17.12;51.84;99361.09;4961031;28;19965;-85
2022/02/21 10:00:08;;;;;;;;;;;;;;;17.13;51.99;99372.34;4945067;28;19930;-84
2022/02/21 10:02:34;;;;;;;;;;;;;;;17.12;51.91;99342.91;4961440;28;19922;-85
2022/02/21 10:05:10;;;;;;;;;;;;;;;17.12;51.90;99365.47;4972090;28;19932;-84
2022/02/21 10:07:38;;;;;;;;;;;;;;;17.12;51.97;99368.91;4977214;28;20352;-84
2022/02/21 10:10:04;;;;;;;;;;;;;;;17.12;51.79;99371.50;4978198;28;19950;-85
2022/02/21 10:12:30;;;;;;;;;;;;;;;17.12;51.82;99378.47;4976857;28;20357;-83
2022/02/21 10:14:57;;;;;;;;;;;;;;;17.13;51.68;99364.53;4960200;28;20009;-84
2022/02/21 10:17:23;;;;;;;;;;;;;;;17.14;51.74;99351.50;4978109;28;19914;-85
2022/02/21 10:19:49;;;;;;;;;;;;;;;17.14;51.57;99372.31;4976739;28;19918;-83
2022/02/21 10:22:22;;;;;;;;;;;;;;;17.14;51.74;99376.66;4960544;28;19918;-83
2022/02/21 10:24:48;;;;;;;;;;;;;;;17.13;51.58;99378.38;4960673;28;19965;-84
2022/02/21 10:27:15;;;;;;;;;;;;;;;17.13;51.79;99383.59;4977728;28;20004;-85
2022/02/21 10:30:00;;;;;;;;;;;;;;;17.14;51.64;99393.09;4976495;28;19914;-85
2022/02/21 10:32:26;;;;;;;;;;;;;;;17.14;51.49;99382.69;4976494;28;19949;-81
2022/02/21 10:34:53;;;;;;;;;;;;;;;17.12;51.55;99389.69;4976388;28;19921;-84
2022/02/21 10:37:20;;;;;;;;;;;;;;;17.12;51.66;99400.09;4977171;28;19914;-85
2022/02/21 10:39:45;;;;;;;;;;;;;;;17.12;51.71;99407.03;4976505;28;19925;-84
2022/02/21 10:42:10;;;;;;;;;;;;;;;17.14;51.43;99410.44;4976417;28;19914;-85
2022/02/21 10:44:37;;;;;;;;;;;;;;;17.14;51.60;99408.69;4960277;28;19922;-84
2022/02/21 10:47:05;;;;;;;;;;;;;;;17.14;51.72;99405.25;4960158;28;19922;-85
2022/02/21 10:49:33;;;;;;;;;;;;;;;17.14;51.63;99403.50;4976024;28;20284;-83
2022/02/21 10:51:59;;;;;;;;;;;;;;;17.12;51.60;99410.50;4976266;28;19921;-85
2022/02/21 10:54:32;;;;;;;;;;;;;;;17.12;51.55;99420.03;4976212;28;19914;-84
2022/02/21 10:56:57;;;;;;;;;;;;;;;17.13;51.60;99460.72;4960067;28;20329;-85
2022/02/21 10:59:26;;;;;;;;;;;;;;;17.14;51.63;99416.50;4977404;28;20015;-85
2022/02/21 11:01:51;;;;;;;;;;;;;;;17.16;51.54;99438.09;4976104;28;19914;-85
2022/02/21 11:04:17;;;;;;;;;;;;;;;17.17;51.51;99428.53;4959561;28;20373;-84
2022/02/21 11:06:44;;;;;;;;;;;;;;;17.17;51.62;99434.59;4959638;28;19914;-85
2022/02/21 11:09:12;;;;;;;;;;;;;;;17.18;51.56;99427.63;4959443;28;20361;-84
2022/02/21 11:11:42;;;;;;;;;;;;;;;17.22;51.28;99432.72;4976833;28;19925;-84
2022/02/21 11:14:08;;;;;;;;;;;;;;;17.24;51.28;99430.06;4959565;28;19979;-85
2022/02/21 11:16:37;;;;;;;;;;;;;;;17.22;51.31;99448.31;4959428;28;19922;-83
2022/02/21 11:19:02;;;;;;;;;;;;;;;17.22;51.27;99452.63;4960293;28;19918;-84
2022/02/21 11:21:28;;;;;;;;;;;;;;;17.22;51.42;99439.63;4959525;28;19925;-85
2022/02/21 11:23:53;;;;;;;;;;;;;;;17.25;51.25;99439.56;4959495;28;19918;-85
2022/02/21 11:26:30;;;;;;;;;;;;;;;17.26;51.12;99464.66;4942509;28;19925;-85
2022/02/21 11:29:02;;;;;;;;;;;;;;;17.26;51.19;99443.84;4959392;28;20246;-85
2022/02/21 11:31:29;;;;;;;;;;;;;;;17.29;51.34;99459.38;4959526;28;19921;-85
2022/02/21 11:34:02;;;;;;;;;;;;;;;17.34;51.03;99460.09;4959187;28;20001;-83
2022/02/21 11:36:28;;;;;;;;;;;;;;;17.34;51.13;99461.84;4976710;28;19921;-85
2022/02/21 11:38:56;;;;;;;;;;;;;;;17.29;51.06;99472.38;4959415;28;19918;-86
2022/02/21 11:41:35;;;;;;;;;;;;;;;17.26;51.34;99468.09;4959179;28;19941;-86
2022/02/21 11:44:20;;;;;;;;;;;;;;;17.25;51.32;99479.41;4959195;28;19942;-84
2022/02/21 11:46:46;;;;;;;;;;;;;;;17.25;51.32;99484.59;4958865;28;19940;-82
2022/02/21 11:49:24;;;;;;;;;;;;;;;17.25;51.25;99499.38;4959146;28;19922;-82
2022/02/21 11:51:49;;;;;;;;;;;;;;;17.25;51.35;99505.41;4976112;28;19914;-81
2022/02/21 11:54:14;;;;;;;;;;;;;;;17.26;51.28;99498.44;4976307;28;20368;-86
2022/02/21 11:56:49;;;;;;;;;;;;;;;17.27;51.18;99510.56;4958784;28;19976;-82
2022/02/21 11:59:27;;;;;;;;;;;;;;;17.35;51.10;99531.97;4958946;28;19914;-82
2022/02/21 12:02:01;;;;;;;;;;;;;;;17.39;51.06;99528.38;4942896;28;19976;-83
2022/02/21 12:04:27;;;;;;;;;;;;;;;17.37;51.15;99535.38;4965013;28;19926;-84
2022/02/21 12:06:53;;;;;;;;;;;;;;;17.36;51.35;99549.31;4958448;28;19914;-83
2022/02/21 12:09:19;;;;;;;;;;;;;;;17.45;50.85;99541.22;4958613;28;20005;-80
2022/02/21 12:11:44;;;;;;;;;;;;;;;17.48;50.76;99563.69;4958083;28;19977;-76
2022/02/21 12:14:12;;;;;;;;;;;;;;;17.51;50.78;99567.94;4975466;28;19914;-75
2022/02/21 12:16:57;;;;;;;;;;;;;;;17.45;50.92;99587.19;4975427;28;20258;-78
2022/02/21 12:19:25;;;;;;;;;;;;;;;17.44;51.00;99594.16;4975342;28;19957;-77
2022/02/21 12:22:07;;;;;;;;;;;;;;;17.47;51.04;99617.44;4958274;28;20360;-84
2022/02/21 12:24:33;;;;;;;;;;;;;;;17.50;50.99;99626.06;4958230;28;19925;-87
2022/02/21 12:27:11;;;;;;;;;;;;;;;17.48;51.09;99633.91;4942316;28;19918;-83
2022/02/21 12:29:39;;;;;;;;;;;;;;;17.46;51.08;99635.69;4975256;28;19917;-85
2022/02/21 12:32:05;;;;;;;;;;;;;;;17.47;51.21;99642.63;4958120;28;19914;-86
2022/02/21 12:34:32;;;;;;;;;;;;;;;17.46;51.18;99664.31;4958142;28;19949;-84
2022/02/21 12:37:08;;;;;;;;;;;;;;;17.47;51.31;99676.44;4957886;28;20392;-81
2022/02/21 12:39:35;;;;;;;;;;;;;;;17.44;51.43;99705.97;4958165;28;19918;-84
2022/02/21 12:42:01;;;;;;;;;;;;;;;17.45;51.31;99701.63;4958408;28;19921;-82